sensor_id;sensor_type;location;lat;lon;timestamp;temperature;humidity
5429;DHT22;2737;52.386;9.980;2022-07-29T00:00:40;16.50;99.90
5429;DHT22;2737;52.386;9.980;2022-07-29T00:03:10;16.50;99.90
5429;DHT22;2737;52.386;9.980;2022-07-29T00:05:38;16.40;99.90
5429;DHT22;2737;52.386;9.980;2022-07-29T00:08:05;16.40;99.90
5429;DHT22;2737;52.386;9.980;2022-07-29T00:10:34;16.40;99.90
5429;DHT22;2737;52.386;9.980;2022-07-29T00:13:01;16.30;99.90
5429;DHT22;2737;52.386;9.980;2022-07-29T00:15:29;16.20;99.90
5429;DHT22;2737;52.386;9.980;2022-07-29T00:17:56;16.20;99.90
5429;DHT22;2737;52.386;9.980;2022-07-29T00:20:23;16.20;99.90
5429;DHT22;2737;52.386;9.980;2022-07-29T00:22:50;16.20;99.90
5429;DHT22;2737;52.386;9.980;2022-07-29T00:25:17;16.20;99.90
5429;DHT22;2737;52.386;9.980;2022-07-29T00:27:45;16.10;99.90
5429;DHT22;2737;52.386;9.980;2022-07-29T00:30:13;16.10;99.90
5429;DHT22;2737;52.386;9.980;2022-07-29T00:32:40;16.10;99.90
5429;DHT22;2737;52.386;9.980;2022-07-29T00:35:08;16.00;99.90
5429;DHT22;2737;52.386;9.980;2022-07-29T00:37:52;16.10;99.90
5429;DHT22;2737;52.386;9.980;2022-07-29T00:40:20;16.00;99.90
5429;DHT22;2737;52.386;9.980;2022-07-29T00:42:50;16.00;99.90
5429;DHT22;2737;52.386;9.980;2022-07-29T00:45:17;16.00;99.90
5429;DHT22;2737;52.386;9.980;2022-07-29T00:47:45;16.00;99.90
5429;DHT22;2737;52.386;9.980;2022-07-29T00:50:13;16.00;99.90
5429;DHT22;2737;52.386;9.980;2022-07-29T00:52:41;16.00;99.90
5429;DHT22;2737;52.386;9.980;2022-07-29T00:55:10;15.90;99.90
5429;DHT22;2737;52.386;9.980;2022-07-29T00:57:38;16.00;99.90
5429;DHT22;2737;52.386;9.980;2022-07-29T01:00:11;15.90;99.90
5429;DHT22;2737;52.386;9.980;2022-07-29T01:02:39;15.90;99.90
5429;DHT22;2737;52.386;9.980;2022-07-29T01:05:06;15.90;99.90
5429;DHT22;2737;52.386;9.980;2022-07-29T01:07:35;15.90;99.90
5429;DHT22;2737;52.386;9.980;2022-07-29T01:10:03;15.80;99.90
5429;DHT22;2737;52.386;9.980;2022-07-29T01:12:31;15.80;99.90
5429;DHT22;2737;52.386;9.980;2022-07-29T01:15:00;15.90;99.90
5429;DHT22;2737;52.386;9.980;2022-07-29T01:17:33;15.90;99.90
5429;DHT22;2737;52.386;9.980;2022-07-29T01:20:07;15.80;99.90
5429;DHT22;2737;52.386;9.980;2022-07-29T01:23:17;15.80;99.90
5429;DHT22;2737;52.386;9.980;2022-07-29T01:29:02;15.80;99.90
5429;DHT22;2737;52.386;9.980;2022-07-29T01:31:35;15.70;99.90
5429;DHT22;2737;52.386;9.980;2022-07-29T01:34:05;15.80;99.90
5429;DHT22;2737;52.386;9.980;2022-07-29T01:36:36;15.80;99.90
5429;DHT22;2737;52.386;9.980;2022-07-29T01:39:11;15.70;99.90
5429;DHT22;2737;52.386;9.980;2022-07-29T01:41:49;15.70;99.90
5429;DHT22;2737;52.386;9.980;2022-07-29T01:44:21;15.70;99.90
5429;DHT22;2737;52.386;9.980;2022-07-29T01:46:54;15.70;99.90
5429;DHT22;2737;52.386;9.980;2022-07-29T01:49:27;15.60;99.90
5429;DHT22;2737;52.386;9.980;2022-07-29T01:51:59;15.60;99.90
5429;DHT22;2737;52.386;9.980;2022-07-29T01:54:34;15.50;99.90
5429;DHT22;2737;52.386;9.980;2022-07-29T01:57:03;15.50;99.90
5429;DHT22;2737;52.386;9.980;2022-07-29T01:59:34;15.50;99.90
5429;DHT22;2737;52.386;9.980;2022-07-29T02:02:01;15.40;99.90
5429;DHT22;2737;52.386;9.980;2022-07-29T02:04:29;15.40;99.90
5429;DHT22;2737;52.386;9.980;2022-07-29T02:07:02;15.40;99.90
5429;DHT22;2737;52.386;9.980;2022-07-29T02:09:32;15.40;99.90
5429;DHT22;2737;52.386;9.980;2022-07-29T02:12:00;15.40;99.90
5429;DHT22;2737;52.386;9.980;2022-07-29T02:14:33;15.40;99.90
5429;DHT22;2737;52.386;9.980;2022-07-29T02:17:01;15.40;99.90
5429;DHT22;2737;52.386;9.980;2022-07-29T02:19:31;15.30;99.90
5429;DHT22;2737;52.386;9.980;2022-07-29T02:21:59;15.30;99.90
5429;DHT22;2737;52.386;9.980;2022-07-29T02:24:28;15.30;99.90
5429;DHT22;2737;52.386;9.980;2022-07-29T02:26:58;15.30;99.90
5429;DHT22;2737;52.386;9.980;2022-07-29T02:29:27;15.30;99.90
5429;DHT22;2737;52.386;9.980;2022-07-29T02:31:59;15.30;99.90
5429;DHT22;2737;52.386;9.980;2022-07-29T02:34:28;15.30;99.90
5429;DHT22;2737;52.386;9.980;2022-07-29T02:36:56;15.30;99.90
5429;DHT22;2737;52.386;9.980;2022-07-29T02:39:24;15.30;99.90
5429;DHT22;2737;52.386;9.980;2022-07-29T02:41:57;15.30;99.90
5429;DHT22;2737;52.386;9.980;2022-07-29T02:44:26;15.30;99.90
5429;DHT22;2737;52.386;9.980;2022-07-29T02:46:57;15.20;99.90
5429;DHT22;2737;52.386;9.980;2022-07-29T02:49:34;15.20;99.90
5429;DHT22;2737;52.386;9.980;2022-07-29T02:52:03;15.20;99.90
5429;DHT22;2737;52.386;9.980;2022-07-29T02:54:36;15.20;99.90
5429;DHT22;2737;52.386;9.980;2022-07-29T02:57:14;15.10;99.90
5429;DHT22;2737;52.386;9.980;2022-07-29T02:59:43;15.10;99.90
5429;DHT22;2737;52.386;9.980;2022-07-29T03:02:13;15.10;99.90
5429;DHT22;2737;52.386;9.980;2022-07-29T03:04:43;15.10;99.90
5429;DHT22;2737;52.386;9.980;2022-07-29T03:07:13;15.10;99.90
5429;DHT22;2737;52.386;9.980;2022-07-29T03:09:41;15.10;99.90
5429;DHT22;2737;52.386;9.980;2022-07-29T03:12:10;15.00;99.90
5429;DHT22;2737;52.386;9.980;2022-07-29T03:14:38;15.00;99.90
5429;DHT22;2737;52.386;9.980;2022-07-29T03:17:06;15.00;99.90
5429;DHT22;2737;52.386;9.980;2022-07-29T03:19:34;14.90;99.90
5429;DHT22;2737;52.386;9.980;2022-07-29T03:22:02;14.90;99.90
5429;DHT22;2737;52.386;9.980;2022-07-29T03:24:31;14.90;99.90
5429;DHT22;2737;52.386;9.980;2022-07-29T03:26:59;14.90;99.90
5429;DHT22;2737;52.386;9.980;2022-07-29T03:29:26;14.80;99.90
5429;DHT22;2737;52.386;9.980;2022-07-29T03:31:54;14.80;99.90
5429;DHT22;2737;52.386;9.980;2022-07-29T03:34:21;14.80;99.90
5429;DHT22;2737;52.386;9.980;2022-07-29T03:36:48;14.70;99.90
5429;DHT22;2737;52.386;9.980;2022-07-29T03:39:19;14.70;99.90
5429;DHT22;2737;52.386;9.980;2022-07-29T03:41:49;14.70;99.90
5429;DHT22;2737;52.386;9.980;2022-07-29T03:44:19;14.70;99.90
5429;DHT22;2737;52.386;9.980;2022-07-29T03:46:49;14.70;99.90
5429;DHT22;2737;52.386;9.980;2022-07-29T03:49:18;14.70;99.90
5429;DHT22;2737;52.386;9.980;2022-07-29T03:51:46;14.70;99.90
5429;DHT22;2737;52.386;9.980;2022-07-29T03:54:13;14.70;99.90
5429;DHT22;2737;52.386;9.980;2022-07-29T03:56:43;14.60;99.90
5429;DHT22;2737;52.386;9.980;2022-07-29T03:59:14;14.60;99.90
5429;DHT22;2737;52.386;9.980;2022-07-29T04:01:42;14.70;99.90
5429;DHT22;2737;52.386;9.980;2022-07-29T04:04:10;14.60;99.90
5429;DHT22;2737;52.386;9.980;2022-07-29T04:06:39;14.60;99.90
5429;DHT22;2737;52.386;9.980;2022-07-29T04:09:06;14.60;99.90
5429;DHT22;2737;52.386;9.980;2022-07-29T04:11:34;14.50;99.90
5429;DHT22;2737;52.386;9.980;2022-07-29T04:14:04;14.60;99.90
5429;DHT22;2737;52.386;9.980;2022-07-29T04:16:31;14.60;99.90
5429;DHT22;2737;52.386;9.980;2022-07-29T04:18:58;14.60;99.90
5429;DHT22;2737;52.386;9.980;2022-07-29T04:21:25;14.60;99.90
5429;DHT22;2737;52.386;9.980;2022-07-29T04:23:52;14.60;99.90
5429;DHT22;2737;52.386;9.980;2022-07-29T04:26:20;14.50;99.90
5429;DHT22;2737;52.386;9.980;2022-07-29T04:28:47;14.50;99.90
5429;DHT22;2737;52.386;9.980;2022-07-29T04:31:16;14.60;99.90
5429;DHT22;2737;52.386;9.980;2022-07-29T04:33:43;14.60;99.90
5429;DHT22;2737;52.386;9.980;2022-07-29T04:36:10;14.60;99.90
5429;DHT22;2737;52.386;9.980;2022-07-29T04:38:38;14.60;99.90
5429;DHT22;2737;52.386;9.980;2022-07-29T04:41:05;14.60;99.90
5429;DHT22;2737;52.386;9.980;2022-07-29T04:43:34;14.50;99.90
5429;DHT22;2737;52.386;9.980;2022-07-29T04:46:01;14.50;99.90
5429;DHT22;2737;52.386;9.980;2022-07-29T04:48:30;14.50;99.90
5429;DHT22;2737;52.386;9.980;2022-07-29T04:50:57;14.50;99.90
5429;DHT22;2737;52.386;9.980;2022-07-29T04:53:24;14.50;99.90
5429;DHT22;2737;52.386;9.980;2022-07-29T04:55:51;14.60;99.90
5429;DHT22;2737;52.386;9.980;2022-07-29T04:58:18;14.60;99.90
5429;DHT22;2737;52.386;9.980;2022-07-29T05:00:45;14.60;99.90
5429;DHT22;2737;52.386;9.980;2022-07-29T05:03:12;14.60;99.90
5429;DHT22;2737;52.386;9.980;2022-07-29T05:05:41;14.60;99.90
5429;DHT22;2737;52.386;9.980;2022-07-29T05:08:09;14.70;99.90
5429;DHT22;2737;52.386;9.980;2022-07-29T05:10:36;14.70;99.90
5429;DHT22;2737;52.386;9.980;2022-07-29T05:13:04;14.80;99.90
5429;DHT22;2737;52.386;9.980;2022-07-29T05:15:35;14.80;99.90
5429;DHT22;2737;52.386;9.980;2022-07-29T05:18:03;14.80;99.90
5429;DHT22;2737;52.386;9.980;2022-07-29T05:20:30;14.80;99.90
5429;DHT22;2737;52.386;9.980;2022-07-29T05:23:00;14.80;99.90
5429;DHT22;2737;52.386;9.980;2022-07-29T05:25:28;14.80;99.90
5429;DHT22;2737;52.386;9.980;2022-07-29T05:27:56;14.80;99.90
5429;DHT22;2737;52.386;9.980;2022-07-29T05:30:23;14.80;99.90
5429;DHT22;2737;52.386;9.980;2022-07-29T05:32:51;14.90;99.90
5429;DHT22;2737;52.386;9.980;2022-07-29T05:35:18;14.90;99.90
5429;DHT22;2737;52.386;9.980;2022-07-29T05:37:45;15.00;99.90
5429;DHT22;2737;52.386;9.980;2022-07-29T05:40:13;15.10;99.90
5429;DHT22;2737;52.386;9.980;2022-07-29T05:42:40;15.10;99.90
5429;DHT22;2737;52.386;9.980;2022-07-29T05:45:08;15.20;99.90
5429;DHT22;2737;52.386;9.980;2022-07-29T05:47:35;15.20;99.90
5429;DHT22;2737;52.386;9.980;2022-07-29T05:50:03;15.30;99.90
5429;DHT22;2737;52.386;9.980;2022-07-29T05:52:30;15.30;99.90
5429;DHT22;2737;52.386;9.980;2022-07-29T05:54:57;15.40;99.90
5429;DHT22;2737;52.386;9.980;2022-07-29T05:57:29;15.40;99.90
5429;DHT22;2737;52.386;9.980;2022-07-29T05:59:57;15.40;99.90
5429;DHT22;2737;52.386;9.980;2022-07-29T06:02:24;15.50;99.90
5429;DHT22;2737;52.386;9.980;2022-07-29T06:04:51;15.60;99.90
5429;DHT22;2737;52.386;9.980;2022-07-29T06:07:18;15.80;99.90
5429;DHT22;2737;52.386;9.980;2022-07-29T06:09:45;15.80;99.90
5429;DHT22;2737;52.386;9.980;2022-07-29T06:12:12;16.00;99.90
5429;DHT22;2737;52.386;9.980;2022-07-29T06:14:41;16.20;99.90
5429;DHT22;2737;52.386;9.980;2022-07-29T06:17:08;16.30;99.90
5429;DHT22;2737;52.386;9.980;2022-07-29T06:19:37;16.40;99.90
5429;DHT22;2737;52.386;9.980;2022-07-29T06:22:04;16.40;99.90
5429;DHT22;2737;52.386;9.980;2022-07-29T06:24:31;16.30;99.90
5429;DHT22;2737;52.386;9.980;2022-07-29T06:26:58;16.30;99.90
5429;DHT22;2737;52.386;9.980;2022-07-29T06:29:25;16.30;99.90
5429;DHT22;2737;52.386;9.980;2022-07-29T06:31:53;16.40;99.90
5429;DHT22;2737;52.386;9.980;2022-07-29T06:34:20;16.40;99.90
5429;DHT22;2737;52.386;9.980;2022-07-29T06:36:47;16.40;99.90
5429;DHT22;2737;52.386;9.980;2022-07-29T06:39:15;16.50;99.90
5429;DHT22;2737;52.386;9.980;2022-07-29T06:41:46;16.50;99.90
5429;DHT22;2737;52.386;9.980;2022-07-29T06:44:13;16.70;99.90
5429;DHT22;2737;52.386;9.980;2022-07-29T06:46:41;16.80;99.90
5429;DHT22;2737;52.386;9.980;2022-07-29T06:49:10;16.90;99.90
5429;DHT22;2737;52.386;9.980;2022-07-29T06:51:38;17.00;99.90
5429;DHT22;2737;52.386;9.980;2022-07-29T06:54:05;17.10;99.90
5429;DHT22;2737;52.386;9.980;2022-07-29T06:56:34;17.10;99.90
5429;DHT22;2737;52.386;9.980;2022-07-29T06:59:03;17.20;99.90
5429;DHT22;2737;52.386;9.980;2022-07-29T07:01:31;17.30;99.90
5429;DHT22;2737;52.386;9.980;2022-07-29T07:04:00;17.40;99.90
5429;DHT22;2737;52.386;9.980;2022-07-29T07:06:29;17.50;99.90
5429;DHT22;2737;52.386;9.980;2022-07-29T07:08:56;17.40;99.90
5429;DHT22;2737;52.386;9.980;2022-07-29T07:11:23;17.40;99.90
5429;DHT22;2737;52.386;9.980;2022-07-29T07:13:50;17.40;99.90
5429;DHT22;2737;52.386;9.980;2022-07-29T07:16:17;17.50;99.90
5429;DHT22;2737;52.386;9.980;2022-07-29T07:18:44;17.60;99.90
5429;DHT22;2737;52.386;9.980;2022-07-29T07:21:11;17.70;99.90
5429;DHT22;2737;52.386;9.980;2022-07-29T07:23:40;17.80;99.90
5429;DHT22;2737;52.386;9.980;2022-07-29T07:26:07;17.90;99.90
5429;DHT22;2737;52.386;9.980;2022-07-29T07:28:34;17.80;99.90
5429;DHT22;2737;52.386;9.980;2022-07-29T07:31:01;17.90;99.90
5429;DHT22;2737;52.386;9.980;2022-07-29T07:33:28;17.80;99.90
5429;DHT22;2737;52.386;9.980;2022-07-29T07:35:55;17.90;99.90
5429;DHT22;2737;52.386;9.980;2022-07-29T07:38:22;17.90;99.90
5429;DHT22;2737;52.386;9.980;2022-07-29T07:40:51;18.00;99.90
5429;DHT22;2737;52.386;9.980;2022-07-29T07:43:18;18.00;99.90
5429;DHT22;2737;52.386;9.980;2022-07-29T07:45:45;18.00;99.90
5429;DHT22;2737;52.386;9.980;2022-07-29T07:48:12;18.10;99.90
5429;DHT22;2737;52.386;9.980;2022-07-29T07:50:39;18.10;99.90
5429;DHT22;2737;52.386;9.980;2022-07-29T07:53:06;18.20;99.90
5429;DHT22;2737;52.386;9.980;2022-07-29T07:55:33;18.30;99.90
5429;DHT22;2737;52.386;9.980;2022-07-29T07:58:01;18.30;99.90
5429;DHT22;2737;52.386;9.980;2022-07-29T08:00:29;18.40;99.90
5429;DHT22;2737;52.386;9.980;2022-07-29T08:02:56;18.40;99.90
5429;DHT22;2737;52.386;9.980;2022-07-29T08:05:23;18.40;99.90
5429;DHT22;2737;52.386;9.980;2022-07-29T08:07:50;18.50;99.90
5429;DHT22;2737;52.386;9.980;2022-07-29T08:10:18;18.60;99.90
5429;DHT22;2737;52.386;9.980;2022-07-29T08:13:02;18.60;99.90
5429;DHT22;2737;52.386;9.980;2022-07-29T08:15:29;18.70;99.90
5429;DHT22;2737;52.386;9.980;2022-07-29T08:17:56;18.70;99.90
5429;DHT22;2737;52.386;9.980;2022-07-29T08:20:23;18.70;99.90
5429;DHT22;2737;52.386;9.980;2022-07-29T08:22:50;18.80;99.90
5429;DHT22;2737;52.386;9.980;2022-07-29T08:25:18;18.90;99.90
5429;DHT22;2737;52.386;9.980;2022-07-29T08:27:46;19.00;99.90
5429;DHT22;2737;52.386;9.980;2022-07-29T08:30:14;19.00;99.90
5429;DHT22;2737;52.386;9.980;2022-07-29T08:32:42;19.10;99.90
5429;DHT22;2737;52.386;9.980;2022-07-29T08:35:09;19.20;99.90
5429;DHT22;2737;52.386;9.980;2022-07-29T08:37:36;19.30;99.90
5429;DHT22;2737;52.386;9.980;2022-07-29T08:40:04;19.40;99.90
5429;DHT22;2737;52.386;9.980;2022-07-29T08:42:31;19.40;99.90
5429;DHT22;2737;52.386;9.980;2022-07-29T08:44:58;19.50;99.90
5429;DHT22;2737;52.386;9.980;2022-07-29T08:47:27;19.60;99.90
5429;DHT22;2737;52.386;9.980;2022-07-29T08:49:55;19.60;99.90
5429;DHT22;2737;52.386;9.980;2022-07-29T08:52:25;19.60;99.90
5429;DHT22;2737;52.386;9.980;2022-07-29T08:54:53;19.60;99.90
5429;DHT22;2737;52.386;9.980;2022-07-29T08:57:21;19.70;99.90
5429;DHT22;2737;52.386;9.980;2022-07-29T08:59:50;19.70;99.90
5429;DHT22;2737;52.386;9.980;2022-07-29T09:02:20;19.70;99.90
5429;DHT22;2737;52.386;9.980;2022-07-29T09:04:49;19.80;99.90
5429;DHT22;2737;52.386;9.980;2022-07-29T09:07:18;19.90;99.90
5429;DHT22;2737;52.386;9.980;2022-07-29T09:09:45;19.90;99.90
5429;DHT22;2737;52.386;9.980;2022-07-29T09:12:13;20.00;99.90
5429;DHT22;2737;52.386;9.980;2022-07-29T09:14:41;20.00;99.90
5429;DHT22;2737;52.386;9.980;2022-07-29T09:17:08;20.00;99.90
5429;DHT22;2737;52.386;9.980;2022-07-29T09:19:36;20.10;99.90
5429;DHT22;2737;52.386;9.980;2022-07-29T09:22:06;20.20;99.90
5429;DHT22;2737;52.386;9.980;2022-07-29T09:24:43;20.20;99.90
5429;DHT22;2737;52.386;9.980;2022-07-29T09:27:21;20.40;99.90
5429;DHT22;2737;52.386;9.980;2022-07-29T09:29:55;20.20;99.90
5429;DHT22;2737;52.386;9.980;2022-07-29T09:32:24;20.20;99.90
5429;DHT22;2737;52.386;9.980;2022-07-29T09:35:15;20.40;99.90
5429;DHT22;2737;52.386;9.980;2022-07-29T09:37:44;20.80;99.90
5429;DHT22;2737;52.386;9.980;2022-07-29T09:40:13;21.00;99.90
5429;DHT22;2737;52.386;9.980;2022-07-29T09:42:41;20.80;99.90
5429;DHT22;2737;52.386;9.980;2022-07-29T09:45:09;20.90;99.90
5429;DHT22;2737;52.386;9.980;2022-07-29T09:47:47;21.00;99.90
5429;DHT22;2737;52.386;9.980;2022-07-29T09:50:15;21.30;99.90
5429;DHT22;2737;52.386;9.980;2022-07-29T09:52:47;21.30;99.90
5429;DHT22;2737;52.386;9.980;2022-07-29T09:55:15;21.50;99.90
5429;DHT22;2737;52.386;9.980;2022-07-29T09:57:43;21.60;99.90
5429;DHT22;2737;52.386;9.980;2022-07-29T10:00:12;21.60;99.90
5429;DHT22;2737;52.386;9.980;2022-07-29T10:02:42;21.60;99.90
5429;DHT22;2737;52.386;9.980;2022-07-29T10:05:20;21.60;99.90
5429;DHT22;2737;52.386;9.980;2022-07-29T10:07:50;21.70;99.90
5429;DHT22;2737;52.386;9.980;2022-07-29T10:10:22;21.80;99.90
5429;DHT22;2737;52.386;9.980;2022-07-29T10:12:52;21.90;99.90
5429;DHT22;2737;52.386;9.980;2022-07-29T10:15:21;22.00;99.90
5429;DHT22;2737;52.386;9.980;2022-07-29T10:17:49;22.00;99.90
5429;DHT22;2737;52.386;9.980;2022-07-29T10:20:17;22.10;99.90
5429;DHT22;2737;52.386;9.980;2022-07-29T10:22:44;22.20;99.90
5429;DHT22;2737;52.386;9.980;2022-07-29T10:25:15;22.30;99.90
5429;DHT22;2737;52.386;9.980;2022-07-29T10:27:42;22.30;99.90
5429;DHT22;2737;52.386;9.980;2022-07-29T10:30:11;22.40;99.90
5429;DHT22;2737;52.386;9.980;2022-07-29T10:32:49;22.40;99.90
5429;DHT22;2737;52.386;9.980;2022-07-29T10:35:48;22.40;99.90
5429;DHT22;2737;52.386;9.980;2022-07-29T10:38:30;22.50;99.90
5429;DHT22;2737;52.386;9.980;2022-07-29T10:41:24;22.50;99.90
5429;DHT22;2737;52.386;9.980;2022-07-29T10:44:00;22.60;99.90
5429;DHT22;2737;52.386;9.980;2022-07-29T10:46:28;22.70;99.90
5429;DHT22;2737;52.386;9.980;2022-07-29T10:49:05;22.90;99.90
5429;DHT22;2737;52.386;9.980;2022-07-29T10:51:58;22.90;99.90
5429;DHT22;2737;52.386;9.980;2022-07-29T10:54:47;23.00;99.90
5429;DHT22;2737;52.386;9.980;2022-07-29T10:57:22;23.10;99.90
5429;DHT22;2737;52.386;9.980;2022-07-29T11:00:27;23.30;99.90
5429;DHT22;2737;52.386;9.980;2022-07-29T11:02:54;23.40;99.90
5429;DHT22;2737;52.386;9.980;2022-07-29T11:05:23;23.30;99.90
5429;DHT22;2737;52.386;9.980;2022-07-29T11:08:20;23.40;99.90
5429;DHT22;2737;52.386;9.980;2022-07-29T11:10:49;23.30;99.90
5429;DHT22;2737;52.386;9.980;2022-07-29T11:13:49;23.40;99.90
5429;DHT22;2737;52.386;9.980;2022-07-29T11:16:18;23.50;99.90
5429;DHT22;2737;52.386;9.980;2022-07-29T11:19:21;23.60;99.90
5429;DHT22;2737;52.386;9.980;2022-07-29T11:21:49;23.60;99.90
5429;DHT22;2737;52.386;9.980;2022-07-29T11:24:19;23.60;99.90
5429;DHT22;2737;52.386;9.980;2022-07-29T11:27:13;23.50;99.90
5429;DHT22;2737;52.386;9.980;2022-07-29T11:29:51;23.50;99.90
5429;DHT22;2737;52.386;9.980;2022-07-29T11:32:19;23.60;99.90
5429;DHT22;2737;52.386;9.980;2022-07-29T11:34:47;23.70;99.50
5429;DHT22;2737;52.386;9.980;2022-07-29T11:37:21;23.70;99.20
5429;DHT22;2737;52.386;9.980;2022-07-29T11:40:16;23.80;99.20
5429;DHT22;2737;52.386;9.980;2022-07-29T11:42:50;23.90;99.20
5429;DHT22;2737;52.386;9.980;2022-07-29T11:45:26;24.00;99.20
5429;DHT22;2737;52.386;9.980;2022-07-29T11:47:58;24.00;99.00
5429;DHT22;2737;52.386;9.980;2022-07-29T11:50:34;23.90;99.60
5429;DHT22;2737;52.386;9.980;2022-07-29T11:53:03;24.10;98.90
5429;DHT22;2737;52.386;9.980;2022-07-29T11:55:37;24.10;98.90
5429;DHT22;2737;52.386;9.980;2022-07-29T11:58:05;24.10;98.70
5429;DHT22;2737;52.386;9.980;2022-07-29T12:00:34;24.20;98.70
5429;DHT22;2737;52.386;9.980;2022-07-29T12:03:05;24.20;98.10
5429;DHT22;2737;52.386;9.980;2022-07-29T12:05:35;24.30;96.50
5429;DHT22;2737;52.386;9.980;2022-07-29T12:08:13;24.40;96.30
5429;DHT22;2737;52.386;9.980;2022-07-29T12:10:42;24.40;95.80
5429;DHT22;2737;52.386;9.980;2022-07-29T12:13:10;24.50;95.50
5429;DHT22;2737;52.386;9.980;2022-07-29T12:15:39;24.60;95.30
5429;DHT22;2737;52.386;9.980;2022-07-29T12:18:13;24.60;94.20
5429;DHT22;2737;52.386;9.980;2022-07-29T12:20:41;24.50;94.40
5429;DHT22;2737;52.386;9.980;2022-07-29T12:23:10;24.60;94.60
5429;DHT22;2737;52.386;9.980;2022-07-29T12:25:40;24.70;94.50
5429;DHT22;2737;52.386;9.980;2022-07-29T12:28:10;24.70;94.60
5429;DHT22;2737;52.386;9.980;2022-07-29T12:30:43;24.70;94.70
5429;DHT22;2737;52.386;9.980;2022-07-29T12:33:19;24.80;94.60
5429;DHT22;2737;52.386;9.980;2022-07-29T12:35:49;24.80;94.60
5429;DHT22;2737;52.386;9.980;2022-07-29T12:38:17;24.80;94.50
5429;DHT22;2737;52.386;9.980;2022-07-29T12:40:46;25.00;94.60
5429;DHT22;2737;52.386;9.980;2022-07-29T12:43:14;25.00;94.40
5429;DHT22;2737;52.386;9.980;2022-07-29T12:45:45;25.10;94.50
5429;DHT22;2737;52.386;9.980;2022-07-29T12:48:13;25.10;94.40
5429;DHT22;2737;52.386;9.980;2022-07-29T12:50:55;25.20;94.00
5429;DHT22;2737;52.386;9.980;2022-07-29T12:53:22;25.20;93.90
5429;DHT22;2737;52.386;9.980;2022-07-29T12:55:51;25.30;94.40
5429;DHT22;2737;52.386;9.980;2022-07-29T12:58:29;25.40;94.20
5429;DHT22;2737;52.386;9.980;2022-07-29T13:01:09;25.60;93.90
5429;DHT22;2737;52.386;9.980;2022-07-29T13:03:48;25.60;93.40
5429;DHT22;2737;52.386;9.980;2022-07-29T13:06:35;25.60;93.30
5429;DHT22;2737;52.386;9.980;2022-07-29T13:09:06;25.60;93.10
5429;DHT22;2737;52.386;9.980;2022-07-29T13:11:36;25.70;93.10
5429;DHT22;2737;52.386;9.980;2022-07-29T13:14:04;25.80;93.00
5429;DHT22;2737;52.386;9.980;2022-07-29T13:16:32;25.90;92.80
5429;DHT22;2737;52.386;9.980;2022-07-29T13:19:07;26.10;93.00
5429;DHT22;2737;52.386;9.980;2022-07-29T13:21:35;26.20;92.20
5429;DHT22;2737;52.386;9.980;2022-07-29T13:24:03;26.40;91.70
5429;DHT22;2737;52.386;9.980;2022-07-29T13:26:31;26.50;91.30
5429;DHT22;2737;52.386;9.980;2022-07-29T13:28:58;26.60;91.20
5429;DHT22;2737;52.386;9.980;2022-07-29T13:31:26;26.60;90.60
5429;DHT22;2737;52.386;9.980;2022-07-29T13:33:54;26.50;90.40
5429;DHT22;2737;52.386;9.980;2022-07-29T13:36:22;26.60;90.60
5429;DHT22;2737;52.386;9.980;2022-07-29T13:38:49;26.60;90.20
5429;DHT22;2737;52.386;9.980;2022-07-29T13:41:16;26.60;89.20
5429;DHT22;2737;52.386;9.980;2022-07-29T13:43:43;26.60;88.50
5429;DHT22;2737;52.386;9.980;2022-07-29T13:46:11;26.60;88.40
5429;DHT22;2737;52.386;9.980;2022-07-29T13:48:38;26.60;89.00
5429;DHT22;2737;52.386;9.980;2022-07-29T13:51:06;26.60;89.40
5429;DHT22;2737;52.386;9.980;2022-07-29T13:53:33;26.60;89.50
5429;DHT22;2737;52.386;9.980;2022-07-29T13:56:00;26.60;88.20
5429;DHT22;2737;52.386;9.980;2022-07-29T13:58:27;26.60;88.50
5429;DHT22;2737;52.386;9.980;2022-07-29T14:00:55;26.60;87.10
5429;DHT22;2737;52.386;9.980;2022-07-29T14:03:23;26.60;87.80
5429;DHT22;2737;52.386;9.980;2022-07-29T14:05:50;26.70;85.90
5429;DHT22;2737;52.386;9.980;2022-07-29T14:08:18;26.70;85.60
5429;DHT22;2737;52.386;9.980;2022-07-29T14:10:45;26.90;85.70
5429;DHT22;2737;52.386;9.980;2022-07-29T14:13:12;27.10;84.60
5429;DHT22;2737;52.386;9.980;2022-07-29T14:15:39;27.10;84.30
5429;DHT22;2737;52.386;9.980;2022-07-29T14:18:06;27.10;83.50
5429;DHT22;2737;52.386;9.980;2022-07-29T14:20:33;27.00;82.60
5429;DHT22;2737;52.386;9.980;2022-07-29T14:23:01;27.00;83.30
5429;DHT22;2737;52.386;9.980;2022-07-29T14:25:29;27.00;82.80
5429;DHT22;2737;52.386;9.980;2022-07-29T14:27:56;27.00;82.50
5429;DHT22;2737;52.386;9.980;2022-07-29T14:30:23;27.00;82.10
5429;DHT22;2737;52.386;9.980;2022-07-29T14:32:50;27.00;82.10
5429;DHT22;2737;52.386;9.980;2022-07-29T14:35:17;27.10;82.20
5429;DHT22;2737;52.386;9.980;2022-07-29T14:37:44;27.20;81.50
5429;DHT22;2737;52.386;9.980;2022-07-29T14:40:11;27.30;81.00
5429;DHT22;2737;52.386;9.980;2022-07-29T14:42:40;27.40;80.80
5429;DHT22;2737;52.386;9.980;2022-07-29T14:45:09;27.50;81.20
5429;DHT22;2737;52.386;9.980;2022-07-29T14:47:36;27.50;80.40
5429;DHT22;2737;52.386;9.980;2022-07-29T14:50:05;27.50;80.50
5429;DHT22;2737;52.386;9.980;2022-07-29T14:52:32;27.30;80.70
5429;DHT22;2737;52.386;9.980;2022-07-29T14:54:59;27.30;80.60
5429;DHT22;2737;52.386;9.980;2022-07-29T14:57:26;27.30;80.70
5429;DHT22;2737;52.386;9.980;2022-07-29T14:59:55;27.30;79.20
5429;DHT22;2737;52.386;9.980;2022-07-29T15:02:23;27.30;77.10
5429;DHT22;2737;52.386;9.980;2022-07-29T15:04:50;27.20;78.50
5429;DHT22;2737;52.386;9.980;2022-07-29T15:07:17;27.10;79.50
5429;DHT22;2737;52.386;9.980;2022-07-29T15:09:44;27.10;78.90
5429;DHT22;2737;52.386;9.980;2022-07-29T15:12:12;27.00;78.70
5429;DHT22;2737;52.386;9.980;2022-07-29T15:14:39;27.00;77.80
5429;DHT22;2737;52.386;9.980;2022-07-29T15:17:07;27.00;78.00
5429;DHT22;2737;52.386;9.980;2022-07-29T15:19:34;27.00;77.20
5429;DHT22;2737;52.386;9.980;2022-07-29T15:22:02;27.00;77.10
5429;DHT22;2737;52.386;9.980;2022-07-29T15:24:30;27.00;77.30
5429;DHT22;2737;52.386;9.980;2022-07-29T15:26:57;27.00;78.30
5429;DHT22;2737;52.386;9.980;2022-07-29T15:29:24;27.00;78.40
5429;DHT22;2737;52.386;9.980;2022-07-29T15:31:51;27.00;78.20
5429;DHT22;2737;52.386;9.980;2022-07-29T15:34:19;27.10;78.10
5429;DHT22;2737;52.386;9.980;2022-07-29T15:36:49;27.00;78.10
5429;DHT22;2737;52.386;9.980;2022-07-29T15:39:16;27.00;78.30
5429;DHT22;2737;52.386;9.980;2022-07-29T15:41:43;27.00;78.30
5429;DHT22;2737;52.386;9.980;2022-07-29T15:44:10;27.00;78.00
5429;DHT22;2737;52.386;9.980;2022-07-29T15:46:37;27.00;78.30
5429;DHT22;2737;52.386;9.980;2022-07-29T15:49:23;26.90;78.70
5429;DHT22;2737;52.386;9.980;2022-07-29T15:52:10;26.90;77.50
5429;DHT22;2737;52.386;9.980;2022-07-29T15:54:39;27.00;78.00
5429;DHT22;2737;52.386;9.980;2022-07-29T15:57:06;26.90;78.20
5429;DHT22;2737;52.386;9.980;2022-07-29T15:59:34;26.90;78.20
5429;DHT22;2737;52.386;9.980;2022-07-29T16:02:01;26.80;77.80
5429;DHT22;2737;52.386;9.980;2022-07-29T16:06:56;27.00;77.70
5429;DHT22;2737;52.386;9.980;2022-07-29T16:09:25;27.00;78.40
5429;DHT22;2737;52.386;9.980;2022-07-29T16:11:53;27.10;77.80
5429;DHT22;2737;52.386;9.980;2022-07-29T16:14:21;27.00;77.60
5429;DHT22;2737;52.386;9.980;2022-07-29T16:16:48;26.90;77.90
5429;DHT22;2737;52.386;9.980;2022-07-29T16:19:15;27.00;77.90
5429;DHT22;2737;52.386;9.980;2022-07-29T16:21:42;27.00;77.40
5429;DHT22;2737;52.386;9.980;2022-07-29T16:24:09;26.90;77.30